sensor_id;sensor_type;location;lat;lon;timestamp;pressure;altitude;pressure_sealevel;temperature;humidity
35151;BME280;55720;51.972;4.624;2023-02-15T00:01:50;103223.38;;;0.06;100.00
35151;BME280;55720;51.972;4.624;2023-02-15T00:04:19;103228.78;;;0.06;100.00
35151;BME280;55720;51.972;4.624;2023-02-15T00:06:45;103222.53;;;0.05;100.00
35151;BME280;55720;51.972;4.624;2023-02-15T00:09:11;103220.25;;;0.02;100.00
35151;BME280;55720;51.972;4.624;2023-02-15T00:11:37;103222.53;;;-0.02;100.00
35151;BME280;55720;51.972;4.624;2023-02-15T00:14:12;103217.53;;;-0.05;100.00
35151;BME280;55720;51.972;4.624;2023-02-15T00:16:45;103221.69;;;-0.09;100.00
35151;BME280;55720;51.972;4.624;2023-02-15T00:19:20;103218.38;;;-0.04;100.00
35151;BME280;55720;51.972;4.624;2023-02-15T00:21:47;103221.28;;;0.01;100.00
35151;BME280;55720;51.972;4.624;2023-02-15T00:24:15;103204.88;;;0.03;100.00
35151;BME280;55720;51.972;4.624;2023-02-15T00:26:42;103205.66;;;-0.04;100.00
35151;BME280;55720;51.972;4.624;2023-02-15T00:29:09;103193.00;;;-0.03;100.00
35151;BME280;55720;51.972;4.624;2023-02-15T00:31:35;103182.41;;;-0.11;100.00
35151;BME280;55720;51.972;4.624;2023-02-15T00:34:29;103191.31;;;-0.17;100.00
35151;BME280;55720;51.972;4.624;2023-02-15T00:36:55;103203.97;;;-0.24;100.00
35151;BME280;55720;51.972;4.624;2023-02-15T00:39:21;103182.59;;;-0.26;100.00
35151;BME280;55720;51.972;4.624;2023-02-15T00:41:53;103191.28;;;-0.30;100.00
35151;BME280;55720;51.972;4.624;2023-02-15T00:44:19;103200.63;;;-0.33;100.00
35151;BME280;55720;51.972;4.624;2023-02-15T00:46:44;103201.84;;;-0.35;100.00
35151;BME280;55720;51.972;4.624;2023-02-15T00:49:10;103206.63;;;-0.37;100.00
35151;BME280;55720;51.972;4.624;2023-02-15T00:51:36;103196.84;;;-0.38;100.00
35151;BME280;55720;51.972;4.624;2023-02-15T00:54:02;103199.34;;;-0.43;100.00
35151;BME280;55720;51.972;4.624;2023-02-15T00:56:27;103214.06;;;-0.46;100.00
35151;BME280;55720;51.972;4.624;2023-02-15T00:58:54;103212.34;;;-0.54;100.00
35151;BME280;55720;51.972;4.624;2023-02-15T01:01:20;103211.16;;;-0.51;100.00
35151;BME280;55720;51.972;4.624;2023-02-15T01:03:47;103214.03;;;-0.53;100.00
35151;BME280;55720;51.972;4.624;2023-02-15T01:06:14;103207.81;;;-0.53;100.00
35151;BME280;55720;51.972;4.624;2023-02-15T01:08:40;103210.50;;;-0.53;100.00
35151;BME280;55720;51.972;4.624;2023-02-15T01:11:12;103207.63;;;-0.52;100.00
35151;BME280;55720;51.972;4.624;2023-02-15T01:13:38;103200.53;;;-0.53;100.00
35151;BME280;55720;51.972;4.624;2023-02-15T01:16:04;103199.94;;;-0.55;100.00
35151;BME280;55720;51.972;4.624;2023-02-15T01:18:35;103187.66;;;-0.51;100.00
35151;BME280;55720;51.972;4.624;2023-02-15T01:21:12;103195.16;;;-0.53;100.00
35151;BME280;55720;51.972;4.624;2023-02-15T01:23:42;103184.53;;;-0.61;100.00
35151;BME280;55720;51.972;4.624;2023-02-15T01:26:09;103194.66;;;-0.69;100.00
35151;BME280;55720;51.972;4.624;2023-02-15T01:28:35;103185.72;;;-0.76;100.00
35151;BME280;55720;51.972;4.624;2023-02-15T01:31:05;103179.50;;;-0.70;100.00
35151;BME280;55720;51.972;4.624;2023-02-15T01:33:38;103165.84;;;-0.62;100.00
35151;BME280;55720;51.972;4.624;2023-02-15T01:36:04;103178.50;;;-0.63;100.00
35151;BME280;55720;51.972;4.624;2023-02-15T01:38:30;103176.00;;;-0.64;100.00
35151;BME280;55720;51.972;4.624;2023-02-15T01:40:56;103159.81;;;-0.64;100.00
35151;BME280;55720;51.972;4.624;2023-02-15T01:43:50;103165.88;;;-0.56;100.00
35151;BME280;55720;51.972;4.624;2023-02-15T01:46:18;103167.75;;;-0.56;100.00
35151;BME280;55720;51.972;4.624;2023-02-15T01:48:48;103170.63;;;-0.58;100.00
35151;BME280;55720;51.972;4.624;2023-02-15T01:51:22;103170.41;;;-0.63;100.00
35151;BME280;55720;51.972;4.624;2023-02-15T01:53:53;103172.03;;;-0.68;100.00
35151;BME280;55720;51.972;4.624;2023-02-15T01:56:27;103172.44;;;-0.71;100.00
35151;BME280;55720;51.972;4.624;2023-02-15T01:59:00;103159.59;;;-0.69;100.00
35151;BME280;55720;51.972;4.624;2023-02-15T02:01:27;103150.03;;;-0.72;100.00
35151;BME280;55720;51.972;4.624;2023-02-15T03:20:59;103078.41;;;-1.28;100.00
35151;BME280;55720;51.972;4.624;2023-02-15T03:23:27;103074.44;;;-1.32;100.00
35151;BME280;55720;51.972;4.624;2023-02-15T03:26:03;103073.44;;;-1.31;100.00
35151;BME280;55720;51.972;4.624;2023-02-15T03:28:42;103069.72;;;-1.30;100.00
35151;BME280;55720;51.972;4.624;2023-02-15T03:31:11;103069.50;;;-1.29;100.00
35151;BME280;55720;51.972;4.624;2023-02-15T03:33:52;103061.00;;;-1.26;100.00
35151;BME280;55720;51.972;4.624;2023-02-15T03:36:36;103057.91;;;-1.23;100.00
35151;BME280;55720;51.972;4.624;2023-02-15T03:41:37;103060.56;;;-1.29;100.00
35151;BME280;55720;51.972;4.624;2023-02-15T03:44:06;103050.44;;;-1.27;100.00
35151;BME280;55720;51.972;4.624;2023-02-15T03:46:53;103050.88;;;-1.24;100.00
35151;BME280;55720;51.972;4.624;2023-02-15T03:49:25;103056.88;;;-1.22;100.00
35151;BME280;55720;51.972;4.624;2023-02-15T03:51:56;103047.13;;;-1.23;100.00
35151;BME280;55720;51.972;4.624;2023-02-15T03:54:28;103045.09;;;-1.14;100.00
35151;BME280;55720;51.972;4.624;2023-02-15T03:57:15;103041.53;;;-1.21;100.00
35151;BME280;55720;51.972;4.624;2023-02-15T04:00:00;103040.28;;;-1.25;100.00
35151;BME280;55720;51.972;4.624;2023-02-15T04:02:58;103039.44;;;-1.26;100.00
35151;BME280;55720;51.972;4.624;2023-02-15T04:05:26;103036.75;;;-1.26;100.00
35151;BME280;55720;51.972;4.624;2023-02-15T04:07:51;103030.94;;;-1.23;100.00
35151;BME280;55720;51.972;4.624;2023-02-15T04:10:17;103028.53;;;-1.05;100.00
35151;BME280;55720;51.972;4.624;2023-02-15T04:13:01;102991.75;;;-0.52;100.00
35151;BME280;55720;51.972;4.624;2023-02-15T04:15:27;102961.41;;;-0.21;100.00
35151;BME280;55720;51.972;4.624;2023-02-15T04:18:10;102955.56;;;0.02;100.00
35151;BME280;55720;51.972;4.624;2023-02-15T04:20:36;102939.53;;;0.20;100.00
35151;BME280;55720;51.972;4.624;2023-02-15T04:23:21;102900.81;;;0.39;100.00
35151;BME280;55720;51.972;4.624;2023-02-15T04:26:05;102923.28;;;0.33;100.00
35151;BME280;55720;51.972;4.624;2023-02-15T04:28:30;102929.16;;;0.17;100.00
35151;BME280;55720;51.972;4.624;2023-02-15T04:30:56;102875.00;;;-0.01;100.00
35151;BME280;55720;51.972;4.624;2023-02-15T04:33:21;102895.00;;;0.36;100.00
35151;BME280;55720;51.972;4.624;2023-02-15T04:35:46;102922.59;;;0.44;100.00
35151;BME280;55720;51.972;4.624;2023-02-15T04:38:12;102927.38;;;0.49;100.00
35151;BME280;55720;51.972;4.624;2023-02-15T04:40:37;102931.16;;;0.41;100.00
35151;BME280;55720;51.972;4.624;2023-02-15T04:43:03;102922.25;;;0.28;100.00
35151;BME280;55720;51.972;4.624;2023-02-15T04:45:28;102927.28;;;0.24;100.00
35151;BME280;55720;51.972;4.624;2023-02-15T04:47:54;102934.19;;;0.07;100.00
35151;BME280;55720;51.972;4.624;2023-02-15T04:50:19;102936.66;;;0.02;100.00
35151;BME280;55720;51.972;4.624;2023-02-15T04:52:44;102936.88;;;0.07;100.00
35151;BME280;55720;51.972;4.624;2023-02-15T04:55:10;102934.56;;;0.04;100.00
35151;BME280;55720;51.972;4.624;2023-02-15T04:57:35;102929.44;;;-0.04;100.00
35151;BME280;55720;51.972;4.624;2023-02-15T05:00:03;102919.88;;;0.00;100.00
35151;BME280;55720;51.972;4.624;2023-02-15T05:02:29;102923.81;;;-0.09;100.00
35151;BME280;55720;51.972;4.624;2023-02-15T05:04:54;102920.72;;;-0.19;100.00
35151;BME280;55720;51.972;4.624;2023-02-15T05:07:19;102926.53;;;-0.29;100.00
35151;BME280;55720;51.972;4.624;2023-02-15T05:09:48;102927.38;;;-0.41;100.00
35151;BME280;55720;51.972;4.624;2023-02-15T05:12:13;102928.00;;;-0.53;100.00
35151;BME280;55720;51.972;4.624;2023-02-15T05:14:38;102918.06;;;-0.52;100.00
35151;BME280;55720;51.972;4.624;2023-02-15T05:17:04;102911.41;;;-0.63;100.00
35151;BME280;55720;51.972;4.624;2023-02-15T05:19:30;102906.22;;;-0.71;100.00
35151;BME280;55720;51.972;4.624;2023-02-15T05:21:56;102908.94;;;-0.77;100.00
35151;BME280;55720;51.972;4.624;2023-02-15T05:24:21;102904.78;;;-0.80;100.00
35151;BME280;55720;51.972;4.624;2023-02-15T05:27:05;102894.81;;;-0.53;100.00
35151;BME280;55720;51.972;4.624;2023-02-15T05:29:49;102892.53;;;-0.56;100.00
35151;BME280;55720;51.972;4.624;2023-02-15T05:32:15;102886.03;;;-0.29;100.00
35151;BME280;55720;51.972;4.624;2023-02-15T05:34:40;102875.47;;;-0.30;100.00
35151;BME280;55720;51.972;4.624;2023-02-15T05:37:06;102870.66;;;-0.09;100.00
35151;BME280;55720;51.972;4.624;2023-02-15T05:39:32;102866.91;;;-0.08;100.00
35151;BME280;55720;51.972;4.624;2023-02-15T05:41:59;102861.09;;;-0.05;100.00
35151;BME280;55720;51.972;4.624;2023-02-15T05:44:25;102863.53;;;0.10;100.00
35151;BME280;55720;51.972;4.624;2023-02-15T05:46:50;102857.22;;;0.23;100.00
35151;BME280;55720;51.972;4.624;2023-02-15T05:49:15;102850.88;;;0.48;100.00
35151;BME280;55720;51.972;4.624;2023-02-15T05:51:41;102855.13;;;0.31;100.00
35151;BME280;55720;51.972;4.624;2023-02-15T05:54:06;102857.47;;;0.21;100.00
35151;BME280;55720;51.972;4.624;2023-02-15T05:56:32;102862.63;;;0.23;100.00
35151;BME280;55720;51.972;4.624;2023-02-15T05:58:57;102858.78;;;-0.01;100.00
35151;BME280;55720;51.972;4.624;2023-02-15T06:01:23;102858.41;;;-0.11;100.00
35151;BME280;55720;51.972;4.624;2023-02-15T06:03:48;102854.50;;;-0.22;100.00
35151;BME280;55720;51.972;4.624;2023-02-15T06:06:14;102853.88;;;-0.30;100.00
35151;BME280;55720;51.972;4.624;2023-02-15T06:08:40;102846.44;;;-0.41;100.00
35151;BME280;55720;51.972;4.624;2023-02-15T06:11:06;102848.94;;;-0.40;100.00
35151;BME280;55720;51.972;4.624;2023-02-15T06:13:32;102841.63;;;-0.39;100.00
35151;BME280;55720;51.972;4.624;2023-02-15T06:15:58;102841.00;;;-0.28;100.00
35151;BME280;55720;51.972;4.624;2023-02-15T06:18:23;102833.72;;;-0.15;100.00
35151;BME280;55720;51.972;4.624;2023-02-15T06:20:49;102835.38;;;-0.20;100.00
35151;BME280;55720;51.972;4.624;2023-02-15T06:23:14;102839.75;;;-0.26;100.00
35151;BME280;55720;51.972;4.624;2023-02-15T06:25:40;102826.88;;;-0.24;100.00
35151;BME280;55720;51.972;4.624;2023-02-15T06:28:05;102810.44;;;-0.16;100.00
35151;BME280;55720;51.972;4.624;2023-02-15T06:30:31;102814.19;;;-0.17;100.00
35151;BME280;55720;51.972;4.624;2023-02-15T06:32:56;102815.22;;;-0.11;100.00
35151;BME280;55720;51.972;4.624;2023-02-15T06:35:22;102822.28;;;-0.17;100.00
35151;BME280;55720;51.972;4.624;2023-02-15T06:37:48;102822.50;;;-0.18;100.00
35151;BME280;55720;51.972;4.624;2023-02-15T06:40:14;102824.59;;;-0.27;100.00
35151;BME280;55720;51.972;4.624;2023-02-15T06:42:41;102816.06;;;-0.24;100.00
35151;BME280;55720;51.972;4.624;2023-02-15T06:45:07;102815.63;;;-0.08;100.00
35151;BME280;55720;51.972;4.624;2023-02-15T06:47:33;102816.28;;;-0.19;100.00
35151;BME280;55720;51.972;4.624;2023-02-15T06:49:58;102805.22;;;-0.11;100.00
35151;BME280;55720;51.972;4.624;2023-02-15T06:52:23;102792.13;;;-0.01;100.00
35151;BME280;55720;51.972;4.624;2023-02-15T06:54:49;102785.03;;;-0.02;100.00
35151;BME280;55720;51.972;4.624;2023-02-15T06:57:14;102778.53;;;0.13;100.00
35151;BME280;55720;51.972;4.624;2023-02-15T06:59:40;102786.63;;;0.13;100.00
35151;BME280;55720;51.972;4.624;2023-02-15T07:02:05;102780.84;;;0.09;100.00
35151;BME280;55720;51.972;4.624;2023-02-15T07:04:30;102775.69;;;0.01;100.00
35151;BME280;55720;51.972;4.624;2023-02-15T07:06:56;102777.19;;;-0.10;100.00
35151;BME280;55720;51.972;4.624;2023-02-15T07:09:22;102775.50;;;-0.11;100.00
35151;BME280;55720;51.972;4.624;2023-02-15T07:11:49;102768.25;;;-0.10;100.00
35151;BME280;55720;51.972;4.624;2023-02-15T07:14:33;102774.69;;;-0.05;100.00
35151;BME280;55720;51.972;4.624;2023-02-15T07:16:58;102765.34;;;-0.09;100.00
35151;BME280;55720;51.972;4.624;2023-02-15T07:19:24;102763.44;;;-0.02;100.00
35151;BME280;55720;51.972;4.624;2023-02-15T07:21:49;102709.22;;;0.00;100.00
35151;BME280;55720;51.972;4.624;2023-02-15T07:24:14;102715.19;;;0.09;100.00
35151;BME280;55720;51.972;4.624;2023-02-15T07:26:40;102731.34;;;0.15;100.00
35151;BME280;55720;51.972;4.624;2023-02-15T07:29:05;102731.13;;;0.17;100.00
35151;BME280;55720;51.972;4.624;2023-02-15T07:31:31;102731.94;;;0.24;100.00
35151;BME280;55720;51.972;4.624;2023-02-15T07:33:56;102723.72;;;0.37;100.00
35151;BME280;55720;51.972;4.624;2023-02-15T07:36:22;102730.75;;;0.44;100.00
35151;BME280;55720;51.972;4.624;2023-02-15T07:38:47;102728.22;;;0.49;100.00
35151;BME280;55720;51.972;4.624;2023-02-15T07:41:15;102723.59;;;0.57;100.00
35151;BME280;55720;51.972;4.624;2023-02-15T07:43:42;102718.31;;;0.68;100.00
35151;BME280;55720;51.972;4.624;2023-02-15T07:46:10;102713.41;;;0.77;100.00
35151;BME280;55720;51.972;4.624;2023-02-15T07:48:37;102710.38;;;0.91;100.00
35151;BME280;55720;51.972;4.624;2023-02-15T07:51:05;102710.69;;;1.02;100.00
35151;BME280;55720;51.972;4.624;2023-02-15T07:53:31;102708.69;;;1.15;100.00
35151;BME280;55720;51.972;4.624;2023-02-15T07:56:01;102699.97;;;1.13;100.00
35151;BME280;55720;51.972;4.624;2023-02-15T07:58:27;102679.59;;;1.47;100.00
35151;BME280;55720;51.972;4.624;2023-02-15T08:01:12;102650.53;;;2.14;100.00
35151;BME280;55720;51.972;4.624;2023-02-15T08:03:38;102619.22;;;2.87;100.00
35151;BME280;55720;51.972;4.624;2023-02-15T08:06:03;102609.47;;;3.26;100.00
35151;BME280;55720;51.972;4.624;2023-02-15T08:08:29;102611.78;;;2.83;100.00
35151;BME280;55720;51.972;4.624;2023-02-15T08:11:24;102616.53;;;2.53;100.00
35151;BME280;55720;51.972;4.624;2023-02-15T08:14:15;102613.31;;;2.90;100.00
35151;BME280;55720;51.972;4.624;2023-02-15T08:19:29;102610.94;;;3.45;100.00
35151;BME280;55720;51.972;4.624;2023-02-15T08:21:56;102617.09;;;3.41;100.00
35151;BME280;55720;51.972;4.624;2023-02-15T08:24:24;102633.63;;;2.76;100.00
35151;BME280;55720;51.972;4.624;2023-02-15T08:26:50;102642.22;;;2.50;100.00
35151;BME280;55720;51.972;4.624;2023-02-15T08:29:21;102633.25;;;2.61;100.00
35151;BME280;55720;51.972;4.624;2023-02-15T08:31:53;102656.38;;;2.40;100.00
35151;BME280;55720;51.972;4.624;2023-02-15T08:34:19;102644.47;;;2.65;100.00
35151;BME280;55720;51.972;4.624;2023-02-15T08:36:45;102641.41;;;2.84;100.00
35151;BME280;55720;51.972;4.624;2023-02-15T08:39:12;102621.22;;;2.92;100.00
35151;BME280;55720;51.972;4.624;2023-02-15T08:41:38;102638.56;;;2.91;100.00
35151;BME280;55720;51.972;4.624;2023-02-15T08:44:06;102638.28;;;3.16;100.00
35151;BME280;55720;51.972;4.624;2023-02-15T08:46:34;102653.50;;;3.28;100.00
35151;BME280;55720;51.972;4.624;2023-02-15T08:49:00;102662.72;;;3.16;100.00
35151;BME280;55720;51.972;4.624;2023-02-15T08:51:29;102671.22;;;3.19;100.00
35151;BME280;55720;51.972;4.624;2023-02-15T08:53:57;102679.97;;;3.21;100.00
35151;BME280;55720;51.972;4.624;2023-02-15T08:56:33;102691.94;;;3.48;100.00
35151;BME280;55720;51.972;4.624;2023-02-15T08:58:59;102717.69;;;3.34;100.00
35151;BME280;55720;51.972;4.624;2023-02-15T09:01:26;102721.50;;;3.22;100.00
35151;BME280;55720;51.972;4.624;2023-02-15T09:03:56;102731.06;;;3.24;100.00
35151;BME280;55720;51.972;4.624;2023-02-15T09:06:22;102751.44;;;3.50;100.00
35151;BME280;55720;51.972;4.624;2023-02-15T09:08:51;102757.81;;;3.44;100.00
35151;BME280;55720;51.972;4.624;2023-02-15T09:11:27;102771.09;;;3.80;100.00
35151;BME280;55720;51.972;4.624;2023-02-15T09:13:58;102781.50;;;3.83;100.00
35151;BME280;55720;51.972;4.624;2023-02-15T09:16:26;102794.88;;;4.02;100.00
35151;BME280;55720;51.972;4.624;2023-02-15T09:18:52;102805.72;;;4.13;100.00
35151;BME280;55720;51.972;4.624;2023-02-15T09:21:20;102828.97;;;4.32;100.00
35151;BME280;55720;51.972;4.624;2023-02-15T09:23:48;102843.19;;;4.51;100.00
35151;BME280;55720;51.972;4.624;2023-02-15T09:26:19;102856.84;;;4.68;100.00
35151;BME280;55720;51.972;4.624;2023-02-15T09:28:45;102865.16;;;4.61;100.00
35151;BME280;55720;51.972;4.624;2023-02-15T09:31:13;102877.22;;;4.65;100.00
35151;BME280;55720;51.972;4.624;2023-02-15T09:33:41;102892.84;;;5.03;100.00
35151;BME280;55720;51.972;4.624;2023-02-15T09:36:19;102904.19;;;5.12;100.00
35151;BME280;55720;51.972;4.624;2023-02-15T09:38:47;102913.94;;;5.24;100.00
35151;BME280;55720;51.972;4.624;2023-02-15T09:41:32;102929.31;;;5.30;100.00
35151;BME280;55720;51.972;4.624;2023-02-15T09:50:10;102960.06;;;5.92;100.00
35151;BME280;55720;51.972;4.624;2023-02-15T09:52:53;102955.53;;;6.20;100.00
35151;BME280;55720;51.972;4.624;2023-02-15T09:55:38;102951.13;;;6.35;100.00
35151;BME280;55720;51.972;4.624;2023-02-15T09:58:32;102934.03;;;6.45;100.00
35151;BME280;55720;51.972;4.624;2023-02-15T10:04:22;102884.81;;;6.83;100.00
35151;BME280;55720;51.972;4.624;2023-02-15T10:12:35;102688.25;;;7.30;100.00
35151;BME280;55720;51.972;4.624;2023-02-15T10:26:22;102221.81;;;8.10;100.00
35151;BME280;55720;51.972;4.624;2023-02-15T10:29:03;102091.97;;;7.98;100.00
35151;BME280;55720;51.972;4.624;2023-02-15T10:31:46;101992.75;;;7.92;100.00
35151;BME280;55720;51.972;4.624;2023-02-15T10:34:17;101870.66;;;8.01;100.00
35151;BME280;55720;51.972;4.624;2023-02-15T10:37:10;101760.94;;;8.26;100.00
35151;BME280;55720;51.972;4.624;2023-02-15T10:39:59;101670.38;;;8.28;100.00
35151;BME280;55720;51.972;4.624;2023-02-15T10:42:54;101630.69;;;8.30;100.00
35151;BME280;55720;51.972;4.624;2023-02-15T10:48:47;101637.38;;;8.57;100.00
35151;BME280;55720;51.972;4.624;2023-02-15T10:51:18;101669.25;;;8.80;100.00
35151;BME280;55720;51.972;4.624;2023-02-15T10:56:29;101722.97;;;8.95;100.00
35151;BME280;55720;51.972;4.624;2023-02-15T11:01:46;101776.06;;;9.45;100.00
35151;BME280;55720;51.972;4.624;2023-02-15T11:06:51;101820.41;;;9.79;100.00
35151;BME280;55720;51.972;4.624;2023-02-15T11:09:21;101841.44;;;9.83;100.00
35151;BME280;55720;51.972;4.624;2023-02-15T11:11:52;101863.88;;;9.85;100.00
35151;BME280;55720;51.972;4.624;2023-02-15T11:14:37;101882.28;;;9.99;100.00
35151;BME280;55720;51.972;4.624;2023-02-15T11:17:17;101896.13;;;10.07;100.00
35151;BME280;55720;51.972;4.624;2023-02-15T11:19:56;101913.91;;;10.10;100.00
35151;BME280;55720;51.972;4.624;2023-02-15T11:22:25;101933.59;;;10.30;100.00
35151;BME280;55720;51.972;4.624;2023-02-15T11:24:51;101962.34;;;10.19;100.00
35151;BME280;55720;51.972;4.624;2023-02-15T11:27:22;101964.69;;;10.53;100.00
35151;BME280;55720;51.972;4.624;2023-02-15T11:32:40;102004.69;;;10.73;100.00
35151;BME280;55720;51.972;4.624;2023-02-15T11:40:25;102044.28;;;10.26;100.00
35151;BME280;55720;51.972;4.624;2023-02-15T11:42:55;102060.63;;;10.17;100.00
35151;BME280;55720;51.972;4.624;2023-02-15T11:45:29;102044.25;;;10.45;100.00
35151;BME280;55720;51.972;4.624;2023-02-15T11:47:56;102039.88;;;10.71;100.00
35151;BME280;55720;51.972;4.624;2023-02-15T11:50:25;102039.38;;;10.96;100.00
35151;BME280;55720;51.972;4.624;2023-02-15T11:52:52;102052.63;;;10.94;100.00
35151;BME280;55720;51.972;4.624;2023-02-15T11:55:21;102062.09;;;11.02;100.00
35151;BME280;55720;51.972;4.624;2023-02-15T11:58:00;102059.53;;;11.19;100.00
35151;BME280;55720;51.972;4.624;2023-02-15T12:00:40;102064.25;;;11.54;100.00
35151;BME280;55720;51.972;4.624;2023-02-15T12:03:14;102060.78;;;11.62;100.00
35151;BME280;55720;51.972;4.624;2023-02-15T12:06:01;102078.22;;;11.71;100.00
35151;BME280;55720;51.972;4.624;2023-02-15T12:08:37;102097.00;;;11.92;100.00
35151;BME280;55720;51.972;4.624;2023-02-15T12:11:07;102110.88;;;11.87;100.00
35151;BME280;55720;51.972;4.624;2023-02-15T12:13:32;102135.53;;;11.92;100.00
35151;BME280;55720;51.972;4.624;2023-02-15T12:15:59;102155.16;;;12.12;100.00
35151;BME280;55720;51.972;4.624;2023-02-15T12:18:42;102159.19;;;12.51;100.00
35151;BME280;55720;51.972;4.624;2023-02-15T12:21:25;102179.50;;;12.86;100.00
35151;BME280;55720;51.972;4.624;2023-02-15T12:23:54;102197.59;;;13.00;100.00
35151;BME280;55720;51.972;4.624;2023-02-15T12:26:38;102199.75;;;12.81;100.00
35151;BME280;55720;51.972;4.624;2023-02-15T12:29:21;102202.81;;;13.02;100.00
35151;BME280;55720;51.972;4.624;2023-02-15T12:31:51;102211.47;;;12.87;100.00
35151;BME280;55720;51.972;4.624;2023-02-15T12:36:55;102245.09;;;12.53;100.00
35151;BME280;55720;51.972;4.624;2023-02-15T12:39:27;102262.69;;;12.43;100.00
35151;BME280;55720;51.972;4.624;2023-02-15T12:41:57;102269.38;;;12.01;100.00
35151;BME280;55720;51.972;4.624;2023-02-15T12:44:34;102270.94;;;11.94;100.00
35151;BME280;55720;51.972;4.624;2023-02-15T12:49:42;102275.75;;;11.69;100.00
35151;BME280;55720;51.972;4.624;2023-02-15T12:54:46;102281.28;;;11.69;100.00
35151;BME280;55720;51.972;4.624;2023-02-15T12:57:32;102284.47;;;11.90;100.00
35151;BME280;55720;51.972;4.624;2023-02-15T13:00:00;102286.38;;;12.17;100.00
35151;BME280;55720;51.972;4.624;2023-02-15T13:02:41;102294.56;;;11.95;100.00
35151;BME280;55720;51.972;4.624;2023-02-15T13:05:19;102310.56;;;11.93;100.00
35151;BME280;55720;51.972;4.624;2023-02-15T13:07:51;102311.56;;;12.24;100.00
35151;BME280;55720;51.972;4.624;2023-02-15T13:10:24;102327.06;;;12.20;100.00
35151;BME280;55720;51.972;4.624;2023-02-15T13:12:51;102328.41;;;12.36;100.00
35151;BME280;55720;51.972;4.624;2023-02-15T13:15:30;102343.28;;;12.21;100.00
35151;BME280;55720;51.972;4.624;2023-02-15T13:17:57;102332.56;;;12.20;100.00
35151;BME280;55720;51.972;4.624;2023-02-15T13:20:25;102338.91;;;12.20;100.00
35151;BME280;55720;51.972;4.624;2023-02-15T13:22:58;102332.19;;;12.13;100.00
35151;BME280;55720;51.972;4.624;2023-02-15T13:25:30;102335.97;;;12.03;100.00
35151;BME280;55720;51.972;4.624;2023-02-15T13:28:02;102337.19;;;12.11;100.00
35151;BME280;55720;51.972;4.624;2023-02-15T13:30:35;102330.03;;;12.23;100.00
35151;BME280;55720;51.972;4.624;2023-02-15T13:33:12;102328.00;;;12.15;100.00
35151;BME280;55720;51.972;4.624;2023-02-15T13:35:50;102330.22;;;11.72;100.00
35151;BME280;55720;51.972;4.624;2023-02-15T13:44:17;102331.16;;;12.22;100.00
35151;BME280;55720;51.972;4.624;2023-02-15T13:52:23;102342.16;;;11.95;100.00
35151;BME280;55720;51.972;4.624;2023-02-15T14:11:56;102297.22;;;12.00;100.00
35151;BME280;55720;51.972;4.624;2023-02-15T14:25:51;102344.41;;;12.83;100.00
35151;BME280;55720;51.972;4.624;2023-02-15T14:28:37;102349.09;;;12.33;100.00
35151;BME280;55720;51.972;4.624;2023-02-15T14:31:09;102352.66;;;11.79;100.00
35151;BME280;55720;51.972;4.624;2023-02-15T14:33:43;102347.25;;;11.42;100.00
35151;BME280;55720;51.972;4.624;2023-02-15T14:36:16;102338.91;;;11.15;100.00
35151;BME280;55720;51.972;4.624;2023-02-15T14:41:27;102326.38;;;11.09;100.00
35151;BME280;55720;51.972;4.624;2023-02-15T14:48:56;102295.97;;;11.00;100.00
35151;BME280;55720;51.972;4.624;2023-02-15T15:04:44;102291.44;;;10.58;100.00
35151;BME280;55720;51.972;4.624;2023-02-15T15:07:22;102274.28;;;10.48;100.00
35151;BME280;55720;51.972;4.624;2023-02-15T15:10:02;102261.75;;;10.42;100.00
35151;BME280;55720;51.972;4.624;2023-02-15T15:12:37;102259.56;;;10.38;100.00
35151;BME280;55720;51.972;4.624;2023-02-15T15:15:04;102255.28;;;10.32;100.00
35151;BME280;55720;51.972;4.624;2023-02-15T15:31:00;102188.34;;;9.91;100.00
35151;BME280;55720;51.972;4.624;2023-02-15T15:36:34;102156.72;;;9.75;100.00
35151;BME280;55720;51.972;4.624;2023-02-15T15:39:21;102151.28;;;9.70;100.00
35151;BME280;55720;51.972;4.624;2023-02-15T15:42:09;102137.06;;;9.68;100.00
35151;BME280;55720;51.972;4.624;2023-02-15T15:50:18;102106.06;;;9.49;100.00
35151;BME280;55720;51.972;4.624;2023-02-15T15:52:50;102095.97;;;9.44;100.00
35151;BME280;55720;51.972;4.624;2023-02-15T15:55:21;102088.66;;;9.39;100.00
35151;BME280;55720;51.972;4.624;2023-02-15T15:57:51;102071.75;;;9.32;100.00
35151;BME280;55720;51.972;4.624;2023-02-15T16:00:33;102058.31;;;9.31;100.00
35151;BME280;55720;51.972;4.624;2023-02-15T16:02:59;102046.97;;;9.19;100.00
35151;BME280;55720;51.972;4.624;2023-02-15T16:05:25;102049.47;;;9.15;100.00
35151;BME280;55720;51.972;4.624;2023-02-15T16:07:50;102034.75;;;9.11;100.00
35151;BME280;55720;51.972;4.624;2023-02-15T16:10:26;102019.78;;;9.04;100.00
35151;BME280;55720;51.972;4.624;2023-02-15T16:12:54;102011.88;;;8.97;100.00
35151;BME280;55720;51.972;4.624;2023-02-15T16:15:21;101992.81;;;8.92;100.00
35151;BME280;55720;51.972;4.624;2023-02-15T16:17:51;101986.50;;;8.92;100.00
35151;BME280;55720;51.972;4.624;2023-02-15T16:22:51;101968.19;;;8.87;100.00
35151;BME280;55720;51.972;4.624;2023-02-15T16:25:38;101960.13;;;8.77;100.00
35151;BME280;55720;51.972;4.624;2023-02-15T16:28:11;101954.31;;;8.60;100.00
35151;BME280;55720;51.972;4.624;2023-02-15T16:30:38;101937.94;;;8.55;100.00
35151;BME280;55720;51.972;4.624;2023-02-15T16:33:07;101931.97;;;8.53;100.00
35151;BME280;55720;51.972;4.624;2023-02-15T16:35:33;101925.00;;;8.36;100.00
35151;BME280;55720;51.972;4.624;2023-02-15T16:37:59;101912.00;;;8.23;100.00
35151;BME280;55720;51.972;4.624;2023-02-15T16:42:51;101890.28;;;8.08;100.00
35151;BME280;55720;51.972;4.624;2023-02-15T16:45:19;101875.66;;;7.94;100.00
35151;BME280;55720;51.972;4.624;2023-02-15T16:47:50;101859.66;;;7.82;100.00